sensor_id;sensor_type;location;lat;lon;timestamp;P1;durP1;ratioP1;P2;durP2;ratioP2
49372;SDS011;44113;38.408;-122.974;2022-11-11T00:01:02;2.20;;;0.20;;
49372;SDS011;44113;38.408;-122.974;2022-11-11T00:03:37;0.95;;;0.10;;
49372;SDS011;44113;38.408;-122.974;2022-11-11T00:06:10;0.30;;;0.00;;
49372;SDS011;44113;38.408;-122.974;2022-11-11T00:08:38;0.65;;;0.10;;
49372;SDS011;44113;38.408;-122.974;2022-11-11T00:11:10;4.35;;;0.10;;
49372;SDS011;44113;38.408;-122.974;2022-11-11T00:13:37;1.15;;;0.10;;
49372;SDS011;44113;38.408;-122.974;2022-11-11T00:16:14;0.30;;;0.10;;
49372;SDS011;44113;38.408;-122.974;2022-11-11T00:18:43;0.68;;;0.10;;
49372;SDS011;44113;38.408;-122.974;2022-11-11T00:21:28;0.38;;;0.10;;
49372;SDS011;44113;38.408;-122.974;2022-11-11T00:24:25;0.40;;;0.10;;
49372;SDS011;44113;38.408;-122.974;2022-11-11T00:27:11;0.10;;;0.00;;
49372;SDS011;44113;38.408;-122.974;2022-11-11T00:29:38;0.45;;;0.10;;
49372;SDS011;44113;38.408;-122.974;2022-11-11T00:32:06;0.30;;;0.10;;
49372;SDS011;44113;38.408;-122.974;2022-11-11T00:34:52;0.93;;;0.10;;
49372;SDS011;44113;38.408;-122.974;2022-11-11T00:37:39;0.73;;;0.10;;
49372;SDS011;44113;38.408;-122.974;2022-11-11T00:40:07;1.65;;;0.10;;
49372;SDS011;44113;38.408;-122.974;2022-11-11T00:42:34;0.52;;;0.15;;
49372;SDS011;44113;38.408;-122.974;2022-11-11T00:45:01;7.07;;;0.10;;
49372;SDS011;44113;38.408;-122.974;2022-11-11T00:47:29;0.35;;;0.10;;
49372;SDS011;44113;38.408;-122.974;2022-11-11T00:53:08;0.50;;;0.10;;
49372;SDS011;44113;38.408;-122.974;2022-11-11T00:55:36;0.20;;;0.10;;
49372;SDS011;44113;38.408;-122.974;2022-11-11T00:58:03;0.65;;;0.05;;
49372;SDS011;44113;38.408;-122.974;2022-11-11T01:00:30;0.55;;;0.10;;
49372;SDS011;44113;38.408;-122.974;2022-11-11T01:02:57;0.40;;;0.10;;
49372;SDS011;44113;38.408;-122.974;2022-11-11T01:05:24;1.02;;;0.10;;
49372;SDS011;44113;38.408;-122.974;2022-11-11T01:07:52;2.05;;;0.10;;
49372;SDS011;44113;38.408;-122.974;2022-11-11T01:10:19;0.22;;;0.10;;
49372;SDS011;44113;38.408;-122.974;2022-11-11T01:13:06;0.50;;;0.08;;
49372;SDS011;44113;38.408;-122.974;2022-11-11T01:15:46;0.20;;;0.10;;
49372;SDS011;44113;38.408;-122.974;2022-11-11T01:18:22;0.20;;;0.10;;
49372;SDS011;44113;38.408;-122.974;2022-11-11T01:21:06;0.43;;;0.22;;
49372;SDS011;44113;38.408;-122.974;2022-11-11T01:23:38;0.40;;;0.10;;
49372;SDS011;44113;38.408;-122.974;2022-11-11T01:26:24;0.32;;;0.10;;
49372;SDS011;44113;38.408;-122.974;2022-11-11T01:28:54;0.70;;;0.10;;
49372;SDS011;44113;38.408;-122.974;2022-11-11T01:31:22;0.65;;;0.10;;
49372;SDS011;44113;38.408;-122.974;2022-11-11T01:33:50;0.50;;;0.15;;
49372;SDS011;44113;38.408;-122.974;2022-11-11T01:36:19;0.60;;;0.10;;
49372;SDS011;44113;38.408;-122.974;2022-11-11T01:38:48;0.50;;;0.10;;
49372;SDS011;44113;38.408;-122.974;2022-11-11T01:41:19;0.40;;;0.10;;
49372;SDS011;44113;38.408;-122.974;2022-11-11T01:55:01;0.63;;;0.10;;
49372;SDS011;44113;38.408;-122.974;2022-11-11T01:57:48;0.30;;;0.10;;
49372;SDS011;44113;38.408;-122.974;2022-11-11T02:00:22;0.17;;;0.05;;
49372;SDS011;44113;38.408;-122.974;2022-11-11T02:02:53;0.52;;;0.30;;
49372;SDS011;44113;38.408;-122.974;2022-11-11T02:05:25;0.50;;;0.10;;
49372;SDS011;44113;38.408;-122.974;2022-11-11T02:08:09;3.40;;;0.20;;
49372;SDS011;44113;38.408;-122.974;2022-11-11T02:11:09;4.22;;;0.50;;
49372;SDS011;44113;38.408;-122.974;2022-11-11T02:14:04;0.90;;;0.20;;
49372;SDS011;44113;38.408;-122.974;2022-11-11T02:16:49;0.90;;;0.10;;
49372;SDS011;44113;38.408;-122.974;2022-11-11T02:19:20;6.53;;;0.63;;
49372;SDS011;44113;38.408;-122.974;2022-11-11T02:21:58;1.02;;;0.15;;
49372;SDS011;44113;38.408;-122.974;2022-11-11T02:24:27;2.08;;;0.20;;
49372;SDS011;44113;38.408;-122.974;2022-11-11T02:26:56;1.95;;;0.20;;
49372;SDS011;44113;38.408;-122.974;2022-11-11T02:29:24;4.07;;;0.50;;
49372;SDS011;44113;38.408;-122.974;2022-11-11T02:31:52;1.23;;;0.10;;
49372;SDS011;44113;38.408;-122.974;2022-11-11T02:34:19;2.58;;;0.20;;
49372;SDS011;44113;38.408;-122.974;2022-11-11T02:36:45;2.20;;;0.20;;
49372;SDS011;44113;38.408;-122.974;2022-11-11T02:39:12;0.28;;;0.10;;
49372;SDS011;44113;38.408;-122.974;2022-11-11T02:41:38;0.50;;;0.17;;
49372;SDS011;44113;38.408;-122.974;2022-11-11T02:44:24;3.35;;;0.10;;
49372;SDS011;44113;38.408;-122.974;2022-11-11T02:46:51;2.92;;;0.13;;
49372;SDS011;44113;38.408;-122.974;2022-11-11T02:49:18;1.40;;;0.10;;
49372;SDS011;44113;38.408;-122.974;2022-11-11T02:51:45;2.05;;;0.10;;
49372;SDS011;44113;38.408;-122.974;2022-11-11T02:54:12;0.50;;;0.10;;
49372;SDS011;44113;38.408;-122.974;2022-11-11T02:56:39;0.90;;;0.20;;
49372;SDS011;44113;38.408;-122.974;2022-11-11T02:59:24;3.05;;;0.20;;
49372;SDS011;44113;38.408;-122.974;2022-11-11T03:01:50;3.65;;;0.20;;
49372;SDS011;44113;38.408;-122.974;2022-11-11T03:04:17;5.28;;;0.88;;
49372;SDS011;44113;38.408;-122.974;2022-11-11T03:06:44;3.40;;;0.40;;
49372;SDS011;44113;38.408;-122.974;2022-11-11T03:09:11;2.40;;;0.20;;
49372;SDS011;44113;38.408;-122.974;2022-11-11T03:11:38;10.57;;;0.20;;
49372;SDS011;44113;38.408;-122.974;2022-11-11T03:14:05;6.65;;;0.63;;
49372;SDS011;44113;38.408;-122.974;2022-11-11T03:16:32;2.80;;;0.20;;
49372;SDS011;44113;38.408;-122.974;2022-11-11T03:19:17;1.20;;;0.20;;
49372;SDS011;44113;38.408;-122.974;2022-11-11T03:21:45;1.92;;;0.20;;
49372;SDS011;44113;38.408;-122.974;2022-11-11T03:24:12;4.93;;;0.47;;
49372;SDS011;44113;38.408;-122.974;2022-11-11T03:26:38;1.02;;;0.20;;
49372;SDS011;44113;38.408;-122.974;2022-11-11T03:29:05;3.53;;;0.57;;
49372;SDS011;44113;38.408;-122.974;2022-11-11T03:31:32;2.72;;;0.70;;
49372;SDS011;44113;38.408;-122.974;2022-11-11T03:33:59;1.23;;;0.43;;
49372;SDS011;44113;38.408;-122.974;2022-11-11T03:36:46;1.95;;;0.17;;
49372;SDS011;44113;38.408;-122.974;2022-11-11T03:39:31;0.77;;;0.35;;
49372;SDS011;44113;38.408;-122.974;2022-11-11T03:41:58;1.27;;;0.10;;
49372;SDS011;44113;38.408;-122.974;2022-11-11T03:44:24;1.52;;;0.20;;
49372;SDS011;44113;38.408;-122.974;2022-11-11T03:46:53;1.48;;;0.20;;
49372;SDS011;44113;38.408;-122.974;2022-11-11T03:49:20;1.38;;;0.20;;
49372;SDS011;44113;38.408;-122.974;2022-11-11T03:51:47;1.63;;;0.17;;
49372;SDS011;44113;38.408;-122.974;2022-11-11T03:54:13;2.80;;;0.20;;
49372;SDS011;44113;38.408;-122.974;2022-11-11T03:56:39;6.43;;;0.30;;
49372;SDS011;44113;38.408;-122.974;2022-11-11T03:59:06;12.60;;;2.42;;
49372;SDS011;44113;38.408;-122.974;2022-11-11T04:01:32;9.55;;;1.13;;
49372;SDS011;44113;38.408;-122.974;2022-11-11T04:04:18;3.65;;;1.02;;
49372;SDS011;44113;38.408;-122.974;2022-11-11T04:07:03;4.90;;;0.85;;
49372;SDS011;44113;38.408;-122.974;2022-11-11T04:09:47;9.43;;;0.63;;
49372;SDS011;44113;38.408;-122.974;2022-11-11T04:12:32;12.02;;;0.63;;
49372;SDS011;44113;38.408;-122.974;2022-11-11T04:15:20;20.58;;;1.00;;
49372;SDS011;44113;38.408;-122.974;2022-11-11T04:18:05;5.72;;;0.65;;
49372;SDS011;44113;38.408;-122.974;2022-11-11T04:20:32;3.70;;;0.75;;
49372;SDS011;44113;38.408;-122.974;2022-11-11T04:23:17;3.38;;;0.47;;
49372;SDS011;44113;38.408;-122.974;2022-11-11T04:25:44;6.50;;;0.45;;
49372;SDS011;44113;38.408;-122.974;2022-11-11T04:28:13;8.48;;;0.95;;
49372;SDS011;44113;38.408;-122.974;2022-11-11T04:30:59;2.30;;;0.25;;
49372;SDS011;44113;38.408;-122.974;2022-11-11T04:33:25;1.25;;;0.35;;
49372;SDS011;44113;38.408;-122.974;2022-11-11T04:35:52;3.17;;;0.40;;
49372;SDS011;44113;38.408;-122.974;2022-11-11T04:38:18;1.80;;;0.50;;
49372;SDS011;44113;38.408;-122.974;2022-11-11T04:41:03;3.10;;;0.30;;
49372;SDS011;44113;38.408;-122.974;2022-11-11T04:43:33;3.30;;;0.30;;
49372;SDS011;44113;38.408;-122.974;2022-11-11T04:46:22;1.00;;;0.20;;
49372;SDS011;44113;38.408;-122.974;2022-11-11T04:48:48;0.40;;;0.10;;
49372;SDS011;44113;38.408;-122.974;2022-11-11T04:51:15;4.63;;;0.25;;
49372;SDS011;44113;38.408;-122.974;2022-11-11T04:53:42;3.35;;;0.30;;
49372;SDS011;44113;38.408;-122.974;2022-11-11T04:56:08;2.47;;;0.40;;
49372;SDS011;44113;38.408;-122.974;2022-11-11T04:58:53;3.22;;;0.50;;
49372;SDS011;44113;38.408;-122.974;2022-11-11T05:01:40;1.38;;;0.20;;
49372;SDS011;44113;38.408;-122.974;2022-11-11T05:04:25;7.15;;;0.55;;
49372;SDS011;44113;38.408;-122.974;2022-11-11T05:06:52;1.60;;;0.20;;
49372;SDS011;44113;38.408;-122.974;2022-11-11T05:09:37;5.40;;;0.75;;
49372;SDS011;44113;38.408;-122.974;2022-11-11T05:12:04;1.15;;;0.20;;
49372;SDS011;44113;38.408;-122.974;2022-11-11T05:14:31;1.75;;;0.20;;
49372;SDS011;44113;38.408;-122.974;2022-11-11T05:17:17;5.18;;;0.20;;
49372;SDS011;44113;38.408;-122.974;2022-11-11T05:20:02;0.88;;;0.20;;
49372;SDS011;44113;38.408;-122.974;2022-11-11T05:22:48;1.00;;;0.20;;
49372;SDS011;44113;38.408;-122.974;2022-11-11T05:25:14;1.23;;;0.20;;
49372;SDS011;44113;38.408;-122.974;2022-11-11T05:27:51;2.25;;;0.20;;
49372;SDS011;44113;38.408;-122.974;2022-11-11T05:30:19;0.77;;;0.20;;
49372;SDS011;44113;38.408;-122.974;2022-11-11T05:32:46;1.60;;;0.20;;
49372;SDS011;44113;38.408;-122.974;2022-11-11T05:35:13;1.27;;;0.30;;
49372;SDS011;44113;38.408;-122.974;2022-11-11T05:37:41;1.08;;;0.30;;
49372;SDS011;44113;38.408;-122.974;2022-11-11T05:40:29;0.90;;;0.43;;
49372;SDS011;44113;38.408;-122.974;2022-11-11T05:42:56;1.08;;;0.20;;
49372;SDS011;44113;38.408;-122.974;2022-11-11T05:45:23;0.65;;;0.13;;
49372;SDS011;44113;38.408;-122.974;2022-11-11T05:47:50;1.70;;;0.40;;
49372;SDS011;44113;38.408;-122.974;2022-11-11T05:50:17;4.47;;;0.40;;
49372;SDS011;44113;38.408;-122.974;2022-11-11T05:52:47;9.38;;;0.50;;
49372;SDS011;44113;38.408;-122.974;2022-11-11T05:55:14;10.05;;;0.93;;
49372;SDS011;44113;38.408;-122.974;2022-11-11T05:57:41;12.02;;;1.20;;
49372;SDS011;44113;38.408;-122.974;2022-11-11T06:00:08;11.80;;;0.55;;
49372;SDS011;44113;38.408;-122.974;2022-11-11T06:02:35;7.20;;;0.85;;
49372;SDS011;44113;38.408;-122.974;2022-11-11T06:05:03;8.63;;;0.80;;
49372;SDS011;44113;38.408;-122.974;2022-11-11T06:07:32;21.85;;;0.93;;
49372;SDS011;44113;38.408;-122.974;2022-11-11T06:09:58;5.38;;;0.65;;
49372;SDS011;44113;38.408;-122.974;2022-11-11T06:12:45;10.90;;;0.73;;
49372;SDS011;44113;38.408;-122.974;2022-11-11T06:15:29;4.68;;;0.70;;
49372;SDS011;44113;38.408;-122.974;2022-11-11T06:17:58;4.25;;;0.85;;
49372;SDS011;44113;38.408;-122.974;2022-11-11T06:20:25;4.13;;;1.02;;
49372;SDS011;44113;38.408;-122.974;2022-11-11T06:22:52;7.88;;;0.82;;
49372;SDS011;44113;38.408;-122.974;2022-11-11T06:25:25;3.88;;;0.88;;
49372;SDS011;44113;38.408;-122.974;2022-11-11T06:28:12;4.47;;;0.30;;
49372;SDS011;44113;38.408;-122.974;2022-11-11T06:30:40;8.55;;;0.50;;
49372;SDS011;44113;38.408;-122.974;2022-11-11T06:33:08;2.70;;;0.40;;
49372;SDS011;44113;38.408;-122.974;2022-11-11T06:35:38;1.38;;;0.30;;
49372;SDS011;44113;38.408;-122.974;2022-11-11T06:38:08;1.73;;;0.50;;
49372;SDS011;44113;38.408;-122.974;2022-11-11T06:40:34;10.93;;;0.60;;
49372;SDS011;44113;38.408;-122.974;2022-11-11T06:43:01;4.78;;;0.40;;
49372;SDS011;44113;38.408;-122.974;2022-11-11T06:45:28;1.08;;;0.20;;
49372;SDS011;44113;38.408;-122.974;2022-11-11T06:47:57;1.55;;;0.35;;
49372;SDS011;44113;38.408;-122.974;2022-11-11T06:50:24;2.58;;;0.22;;
49372;SDS011;44113;38.408;-122.974;2022-11-11T06:52:51;2.85;;;0.20;;
49372;SDS011;44113;38.408;-122.974;2022-11-11T06:55:17;2.00;;;0.20;;
49372;SDS011;44113;38.408;-122.974;2022-11-11T06:57:44;3.08;;;0.20;;
49372;SDS011;44113;38.408;-122.974;2022-11-11T07:00:11;4.65;;;0.30;;
49372;SDS011;44113;38.408;-122.974;2022-11-11T07:02:38;3.92;;;0.20;;
49372;SDS011;44113;38.408;-122.974;2022-11-11T07:05:05;2.53;;;0.20;;
49372;SDS011;44113;38.408;-122.974;2022-11-11T07:07:32;4.00;;;0.40;;
49372;SDS011;44113;38.408;-122.974;2022-11-11T07:09:58;1.85;;;0.20;;
49372;SDS011;44113;38.408;-122.974;2022-11-11T07:12:25;2.78;;;0.63;;
49372;SDS011;44113;38.408;-122.974;2022-11-11T07:14:52;7.72;;;0.60;;
49372;SDS011;44113;38.408;-122.974;2022-11-11T07:17:19;8.07;;;0.40;;
49372;SDS011;44113;38.408;-122.974;2022-11-11T07:19:45;6.35;;;0.40;;
49372;SDS011;44113;38.408;-122.974;2022-11-11T07:22:12;3.58;;;0.32;;
49372;SDS011;44113;38.408;-122.974;2022-11-11T07:24:39;5.40;;;0.50;;
49372;SDS011;44113;38.408;-122.974;2022-11-11T07:27:06;7.90;;;0.30;;
49372;SDS011;44113;38.408;-122.974;2022-11-11T07:29:32;4.13;;;0.40;;
49372;SDS011;44113;38.408;-122.974;2022-11-11T07:32:00;3.53;;;0.30;;
49372;SDS011;44113;38.408;-122.974;2022-11-11T07:34:26;4.20;;;0.88;;
49372;SDS011;44113;38.408;-122.974;2022-11-11T07:36:54;2.97;;;0.20;;
49372;SDS011;44113;38.408;-122.974;2022-11-11T07:39:20;6.68;;;0.22;;
49372;SDS011;44113;38.408;-122.974;2022-11-11T07:41:46;1.65;;;0.20;;
49372;SDS011;44113;38.408;-122.974;2022-11-11T07:44:13;1.40;;;0.20;;
49372;SDS011;44113;38.408;-122.974;2022-11-11T07:46:40;6.63;;;0.20;;
49372;SDS011;44113;38.408;-122.974;2022-11-11T07:49:06;5.78;;;0.73;;
49372;SDS011;44113;38.408;-122.974;2022-11-11T07:51:33;2.08;;;0.52;;
49372;SDS011;44113;38.408;-122.974;2022-11-11T07:54:00;1.15;;;0.20;;
49372;SDS011;44113;38.408;-122.974;2022-11-11T07:56:27;1.33;;;0.20;;
49372;SDS011;44113;38.408;-122.974;2022-11-11T07:58:53;1.05;;;0.20;;
49372;SDS011;44113;38.408;-122.974;2022-11-11T08:01:19;0.85;;;0.32;;
49372;SDS011;44113;38.408;-122.974;2022-11-11T08:03:46;0.70;;;0.10;;
49372;SDS011;44113;38.408;-122.974;2022-11-11T08:06:19;2.10;;;0.30;;
49372;SDS011;44113;38.408;-122.974;2022-11-11T08:08:47;1.77;;;0.20;;
49372;SDS011;44113;38.408;-122.974;2022-11-11T08:11:15;1.50;;;0.38;;
49372;SDS011;44113;38.408;-122.974;2022-11-11T08:14:02;1.23;;;0.43;;
49372;SDS011;44113;38.408;-122.974;2022-11-11T08:16:29;0.77;;;0.10;;
49372;SDS011;44113;38.408;-122.974;2022-11-11T08:18:56;0.80;;;0.20;;
49372;SDS011;44113;38.408;-122.974;2022-11-11T08:21:23;0.60;;;0.20;;
49372;SDS011;44113;38.408;-122.974;2022-11-11T08:23:50;2.78;;;0.20;;
49372;SDS011;44113;38.408;-122.974;2022-11-11T08:26:19;2.92;;;0.20;;
49372;SDS011;44113;38.408;-122.974;2022-11-11T08:28:46;7.00;;;0.25;;
49372;SDS011;44113;38.408;-122.974;2022-11-11T08:31:13;1.35;;;0.15;;
49372;SDS011;44113;38.408;-122.974;2022-11-11T08:33:39;0.80;;;0.20;;
49372;SDS011;44113;38.408;-122.974;2022-11-11T08:36:06;2.15;;;0.20;;
49372;SDS011;44113;38.408;-122.974;2022-11-11T08:38:35;0.82;;;0.20;;
49372;SDS011;44113;38.408;-122.974;2022-11-11T08:41:04;0.70;;;0.20;;
49372;SDS011;44113;38.408;-122.974;2022-11-11T08:43:32;1.08;;;0.10;;
49372;SDS011;44113;38.408;-122.974;2022-11-11T08:45:59;1.10;;;0.17;;
49372;SDS011;44113;38.408;-122.974;2022-11-11T08:48:29;3.47;;;0.20;;
49372;SDS011;44113;38.408;-122.974;2022-11-11T08:50:56;0.70;;;0.10;;
49372;SDS011;44113;38.408;-122.974;2022-11-11T08:53:24;8.65;;;0.60;;
49372;SDS011;44113;38.408;-122.974;2022-11-11T08:55:52;4.10;;;0.73;;
49372;SDS011;44113;38.408;-122.974;2022-11-11T08:58:18;5.47;;;0.50;;
49372;SDS011;44113;38.408;-122.974;2022-11-11T09:00:46;5.43;;;0.30;;
49372;SDS011;44113;38.408;-122.974;2022-11-11T09:03:12;8.93;;;0.30;;
49372;SDS011;44113;38.408;-122.974;2022-11-11T09:05:39;3.42;;;0.55;;
49372;SDS011;44113;38.408;-122.974;2022-11-11T09:08:07;1.90;;;0.20;;
49372;SDS011;44113;38.408;-122.974;2022-11-11T09:10:34;4.15;;;0.20;;
49372;SDS011;44113;38.408;-122.974;2022-11-11T09:13:01;0.80;;;0.15;;
49372;SDS011;44113;38.408;-122.974;2022-11-11T09:15:28;2.47;;;0.20;;
49372;SDS011;44113;38.408;-122.974;2022-11-11T09:17:55;1.30;;;0.20;;
49372;SDS011;44113;38.408;-122.974;2022-11-11T09:20:22;2.85;;;0.25;;
49372;SDS011;44113;38.408;-122.974;2022-11-11T09:22:49;1.65;;;0.20;;
49372;SDS011;44113;38.408;-122.974;2022-11-11T09:25:17;1.63;;;0.20;;
49372;SDS011;44113;38.408;-122.974;2022-11-11T09:27:52;7.22;;;0.55;;
49372;SDS011;44113;38.408;-122.974;2022-11-11T09:30:22;0.82;;;0.20;;
49372;SDS011;44113;38.408;-122.974;2022-11-11T09:32:49;1.33;;;0.10;;
49372;SDS011;44113;38.408;-122.974;2022-11-11T09:35:16;1.00;;;0.10;;
49372;SDS011;44113;38.408;-122.974;2022-11-11T09:37:56;6.35;;;0.43;;
49372;SDS011;44113;38.408;-122.974;2022-11-11T09:40:24;4.90;;;0.55;;
49372;SDS011;44113;38.408;-122.974;2022-11-11T09:43:02;2.67;;;0.20;;
49372;SDS011;44113;38.408;-122.974;2022-11-11T09:50:57;2.83;;;0.20;;
49372;SDS011;44113;38.408;-122.974;2022-11-11T09:53:28;2.35;;;0.15;;
49372;SDS011;44113;38.408;-122.974;2022-11-11T09:58:35;1.65;;;0.15;;
49372;SDS011;44113;38.408;-122.974;2022-11-11T10:01:25;0.65;;;0.13;;
49372;SDS011;44113;38.408;-122.974;2022-11-11T10:09:59;3.40;;;0.20;;
49372;SDS011;44113;38.408;-122.974;2022-11-11T10:12:52;1.05;;;0.10;;
49372;SDS011;44113;38.408;-122.974;2022-11-11T10:15:21;0.68;;;0.10;;
49372;SDS011;44113;38.408;-122.974;2022-11-11T10:18:10;2.55;;;0.20;;
49372;SDS011;44113;38.408;-122.974;2022-11-11T10:20:42;3.05;;;0.43;;
49372;SDS011;44113;38.408;-122.974;2022-11-11T10:23:14;3.10;;;0.40;;
49372;SDS011;44113;38.408;-122.974;2022-11-11T10:25:51;1.85;;;0.10;;
49372;SDS011;44113;38.408;-122.974;2022-11-11T10:28:21;0.75;;;0.10;;
49372;SDS011;44113;38.408;-122.974;2022-11-11T10:30:52;0.88;;;0.20;;
49372;SDS011;44113;38.408;-122.974;2022-11-11T10:36:14;3.58;;;0.17;;
49372;SDS011;44113;38.408;-122.974;2022-11-11T10:41:26;2.08;;;0.10;;
49372;SDS011;44113;38.408;-122.974;2022-11-11T10:43:56;0.73;;;0.10;;
49372;SDS011;44113;38.408;-122.974;2022-11-11T10:46:24;3.67;;;0.20;;
49372;SDS011;44113;38.408;-122.974;2022-11-11T10:49:16;1.25;;;0.10;;
49372;SDS011;44113;38.408;-122.974;2022-11-11T10:52:21;0.52;;;0.10;;
49372;SDS011;44113;38.408;-122.974;2022-11-11T10:54:50;2.78;;;0.20;;
49372;SDS011;44113;38.408;-122.974;2022-11-11T10:57:34;0.22;;;0.10;;
49372;SDS011;44113;38.408;-122.974;2022-11-11T11:05:33;0.40;;;0.00;;
49372;SDS011;44113;38.408;-122.974;2022-11-11T11:08:22;0.52;;;0.10;;
49372;SDS011;44113;38.408;-122.974;2022-11-11T11:11:02;1.00;;;0.10;;
49372;SDS011;44113;38.408;-122.974;2022-11-11T11:13:38;0.20;;;0.10;;
49372;SDS011;44113;38.408;-122.974;2022-11-11T11:16:15;0.35;;;0.03;;
49372;SDS011;44113;38.408;-122.974;2022-11-11T11:21:52;0.50;;;0.10;;
49372;SDS011;44113;38.408;-122.974;2022-11-11T11:24:27;4.93;;;0.25;;
49372;SDS011;44113;38.408;-122.974;2022-11-11T11:27:00;0.20;;;0.00;;
49372;SDS011;44113;38.408;-122.974;2022-11-11T11:29:30;0.43;;;0.10;;
49372;SDS011;44113;38.408;-122.974;2022-11-11T11:34:44;0.35;;;0.00;;
49372;SDS011;44113;38.408;-122.974;2022-11-11T11:37:18;0.88;;;0.20;;
49372;SDS011;44113;38.408;-122.974;2022-11-11T11:39:46;0.40;;;0.10;;
49372;SDS011;44113;38.408;-122.974;2022-11-11T11:42:26;0.30;;;0.10;;
49372;SDS011;44113;38.408;-122.974;2022-11-11T11:44:53;0.20;;;0.00;;
49372;SDS011;44113;38.408;-122.974;2022-11-11T11:50:25;1.38;;;0.32;;
49372;SDS011;44113;38.408;-122.974;2022-11-11T11:53:19;0.38;;;0.10;;
49372;SDS011;44113;38.408;-122.974;2022-11-11T11:55:50;2.53;;;0.10;;
49372;SDS011;44113;38.408;-122.974;2022-11-11T11:58:57;1.55;;;0.10;;
49372;SDS011;44113;38.408;-122.974;2022-11-11T12:01:50;0.95;;;0.08;;
49372;SDS011;44113;38.408;-122.974;2022-11-11T12:21:14;0.63;;;0.03;;
49372;SDS011;44113;38.408;-122.974;2022-11-11T12:26:52;0.17;;;0.00;;
49372;SDS011;44113;38.408;-122.974;2022-11-11T12:29:42;0.10;;;0.00;;
49372;SDS011;44113;38.408;-122.974;2022-11-11T12:32:29;0.22;;;0.00;;
49372;SDS011;44113;38.408;-122.974;2022-11-11T12:40:35;0.50;;;0.10;;
49372;SDS011;44113;38.408;-122.974;2022-11-11T12:46:32;0.25;;;0.00;;
49372;SDS011;44113;38.408;-122.974;2022-11-11T12:49:17;0.35;;;0.17;;
49372;SDS011;44113;38.408;-122.974;2022-11-11T12:51:50;0.13;;;0.03;;
49372;SDS011;44113;38.408;-122.974;2022-11-11T12:55:17;0.38;;;0.10;;
49372;SDS011;44113;38.408;-122.974;2022-11-11T12:57:50;0.15;;;0.00;;
49372;SDS011;44113;38.408;-122.974;2022-11-11T13:03:26;0.30;;;0.00;;
49372;SDS011;44113;38.408;-122.974;2022-11-11T13:06:22;0.25;;;0.10;;
49372;SDS011;44113;38.408;-122.974;2022-11-11T13:08:53;1.65;;;0.10;;
49372;SDS011;44113;38.408;-122.974;2022-11-11T13:14:46;0.55;;;0.00;;
49372;SDS011;44113;38.408;-122.974;2022-11-11T13:17:20;0.20;;;0.10;;
49372;SDS011;44113;38.408;-122.974;2022-11-11T13:19:54;0.20;;;0.00;;
49372;SDS011;44113;38.408;-122.974;2022-11-11T13:22:25;1.42;;;0.10;;
49372;SDS011;44113;38.408;-122.974;2022-11-11T13:24:57;0.10;;;0.00;;
49372;SDS011;44113;38.408;-122.974;2022-11-11T13:27:38;0.20;;;0.10;;
49372;SDS011;44113;38.408;-122.974;2022-11-11T13:36:00;0.40;;;0.10;;
49372;SDS011;44113;38.408;-122.974;2022-11-11T13:38:32;1.95;;;0.10;;
49372;SDS011;44113;38.408;-122.974;2022-11-11T13:41:08;0.68;;;0.10;;
49372;SDS011;44113;38.408;-122.974;2022-11-11T13:43:41;0.45;;;0.10;;
49372;SDS011;44113;38.408;-122.974;2022-11-11T13:49:24;0.20;;;0.08;;
49372;SDS011;44113;38.408;-122.974;2022-11-11T13:52:43;0.20;;;0.10;;
49372;SDS011;44113;38.408;-122.974;2022-11-11T13:55:05;0.40;;;0.10;;
49372;SDS011;44113;38.408;-122.974;2022-11-11T13:57:41;0.30;;;0.10;;
49372;SDS011;44113;38.408;-122.974;2022-11-11T14:02:44;0.28;;;0.10;;
49372;SDS011;44113;38.408;-122.974;2022-11-11T14:05:15;0.45;;;0.03;;
49372;SDS011;44113;38.408;-122.974;2022-11-11T14:12:46;0.10;;;0.10;;
49372;SDS011;44113;38.408;-122.974;2022-11-11T14:18:04;0.40;;;0.10;;
49372;SDS011;44113;38.408;-122.974;2022-11-11T14:20:39;0.20;;;0.10;;
49372;SDS011;44113;38.408;-122.974;2022-11-11T14:25:44;0.38;;;0.10;;
49372;SDS011;44113;38.408;-122.974;2022-11-11T14:28:22;0.10;;;0.00;;
49372;SDS011;44113;38.408;-122.974;2022-11-11T14:30:53;0.10;;;0.00;;
49372;SDS011;44113;38.408;-122.974;2022-11-11T14:36:38;0.38;;;0.00;;
49372;SDS011;44113;38.408;-122.974;2022-11-11T14:39:29;0.20;;;0.10;;
49372;SDS011;44113;38.408;-122.974;2022-11-11T14:42:03;0.20;;;0.10;;
49372;SDS011;44113;38.408;-122.974;2022-11-11T14:57:38;0.10;;;0.08;;
49372;SDS011;44113;38.408;-122.974;2022-11-11T15:05:25;0.55;;;0.10;;
49372;SDS011;44113;38.408;-122.974;2022-11-11T15:08:23;0.10;;;0.03;;
49372;SDS011;44113;38.408;-122.974;2022-11-11T15:10:57;0.30;;;0.10;;
49372;SDS011;44113;38.408;-122.974;2022-11-11T15:22:01;0.15;;;0.10;;
49372;SDS011;44113;38.408;-122.974;2022-11-11T15:24:43;0.20;;;0.10;;
49372;SDS011;44113;38.408;-122.974;2022-11-11T15:27:35;0.30;;;0.10;;
49372;SDS011;44113;38.408;-122.974;2022-11-11T15:30:14;0.30;;;0.10;;
49372;SDS011;44113;38.408;-122.974;2022-11-11T15:35:23;0.30;;;0.10;;
49372;SDS011;44113;38.408;-122.974;2022-11-11T15:38:11;4.05;;;0.20;;
49372;SDS011;44113;38.408;-122.974;2022-11-11T15:40:48;0.25;;;0.10;;
49372;SDS011;44113;38.408;-122.974;2022-11-11T15:43:25;0.30;;;0.10;;
49372;SDS011;44113;38.408;-122.974;2022-11-11T15:45:58;0.30;;;0.10;;
49372;SDS011;44113;38.408;-122.974;2022-11-11T15:48:43;0.30;;;0.10;;
49372;SDS011;44113;38.408;-122.974;2022-11-11T15:51:52;0.20;;;0.10;;
49372;SDS011;44113;38.408;-122.974;2022-11-11T15:54:14;0.20;;;0.10;;
49372;SDS011;44113;38.408;-122.974;2022-11-11T15:56:43;0.20;;;0.10;;
49372;SDS011;44113;38.408;-122.974;2022-11-11T16:01:42;1.00;;;0.10;;
49372;SDS011;44113;38.408;-122.974;2022-11-11T16:04:09;1.35;;;0.10;;
49372;SDS011;44113;38.408;-122.974;2022-11-11T16:06:45;1.27;;;0.10;;
49372;SDS011;44113;38.408;-122.974;2022-11-11T16:09:14;1.33;;;0.10;;
49372;SDS011;44113;38.408;-122.974;2022-11-11T16:11:45;1.33;;;0.45;;
49372;SDS011;44113;38.408;-122.974;2022-11-11T16:14:20;2.67;;;0.20;;
49372;SDS011;44113;38.408;-122.974;2022-11-11T16:16:56;1.30;;;0.20;;
49372;SDS011;44113;38.408;-122.974;2022-11-11T16:22:23;0.90;;;0.20;;
49372;SDS011;44113;38.408;-122.974;2022-11-11T16:24:55;2.38;;;0.17;;
49372;SDS011;44113;38.408;-122.974;2022-11-11T16:27:29;0.57;;;0.50;;
49372;SDS011;44113;38.408;-122.974;2022-11-11T16:32:58;1.02;;;0.10;;
49372;SDS011;44113;38.408;-122.974;2022-11-11T16:35:27;0.60;;;0.10;;
49372;SDS011;44113;38.408;-122.974;2022-11-11T16:37:55;0.93;;;0.10;;
49372;SDS011;44113;38.408;-122.974;2022-11-11T16:46:05;2.45;;;0.10;;
49372;SDS011;44113;38.408;-122.974;2022-11-11T16:51:08;0.52;;;0.15;;
49372;SDS011;44113;38.408;-122.974;2022-11-11T16:53:42;4.03;;;0.10;;
49372;SDS011;44113;38.408;-122.974;2022-11-11T16:56:20;0.93;;;0.10;;
49372;SDS011;44113;38.408;-122.974;2022-11-11T16:58:55;0.47;;;0.10;;
49372;SDS011;44113;38.408;-122.974;2022-11-11T17:01:40;0.57;;;0.10;;
49372;SDS011;44113;38.408;-122.974;2022-11-11T17:04:10;0.47;;;0.10;;
49372;SDS011;44113;38.408;-122.974;2022-11-11T17:09:28;0.45;;;0.13;;
49372;SDS011;44113;38.408;-122.974;2022-11-11T17:12:01;1.38;;;0.10;;
49372;SDS011;44113;38.408;-122.974;2022-11-11T17:14:29;1.35;;;0.10;;
49372;SDS011;44113;38.408;-122.974;2022-11-11T17:16:58;2.00;;;0.20;;
49372;SDS011;44113;38.408;-122.974;2022-11-11T17:19:25;0.55;;;0.10;;